Friday, February 23, 2018, 1:36 PM EST
Back to Local

KMVL, Morrisville Stowe State Airport

Location: Morrisville, VT, United States Lat: 44.533
Local Time: 1:36 PM EST (18:36 GMT) Lon: -72.617
Time Zone: US/Eastern Elev: 731 ft

Show me the last for .
Show Decoded

2018-02-23 12:54 METAR KMVL 231754Z AUTO 18010G21KT 10SM SCT080 01/M09 A3039 RMK AO2 PRESFR
                 SLP303 T00061094 10006 21094 58056 =
2018-02-23 11:54 METAR KMVL 231654Z AUTO 20008KT 10SM FEW090 BKN110 01/M11 A3047 RMK AO2 SLP330
                 T00061106 =
2018-02-23 10:54 METAR KMVL 231554Z AUTO 20009KT 10SM OVC100 M01/M10 A3051 RMK AO2 SLP346
                 T10061100 =
2018-02-23 09:54 METAR KMVL 231454Z AUTO 16004KT 10SM CLR M03/M08 A3056 RMK AO2 SLP361 T10281083
                 58022 =
2018-02-23 08:54 METAR KMVL 231354Z AUTO 18006KT 10SM CLR M06/M08 A3059 RMK AO2 SLP375 T10561083
                 =
2018-02-23 07:54 METAR KMVL 231254Z AUTO 17004KT 10SM CLR M08/M09 A3061 RMK AO2 SLP381 T10781089
                 =
2018-02-23 06:54 METAR KMVL 231154Z AUTO 00000KT 10SM CLR M09/M10 A3062 RMK AO2 SLP385 I1000
                 I6000 T10891100 11078 21100 58019 =
2018-02-23 05:54 METAR KMVL 231054Z AUTO 00000KT 10SM CLR M10/M11 A3065 RMK AO2 SLP396 I1000
                 T11001111 =
2018-02-23 04:54 METAR KMVL 230954Z AUTO 00000KT 10SM CLR M10/M11 A3068 RMK AO2 SLP403 I1000
                 T11001106 =
2018-02-23 03:54 METAR KMVL 230854Z AUTO 00000KT 10SM CLR M09/M10 A3068 RMK AO2 SLP405 T10891100
                 56010 =
2018-02-23 02:54 METAR KMVL 230754Z AUTO 00000KT 10SM CLR M09/M10 A3070 RMK AO2 SLP410 T10891100
                 =
2018-02-23 01:54 METAR KMVL 230654Z AUTO 00000KT 10SM CLR M08/M10 A3070 RMK AO2 SLP409 T10781100
                 =
2018-02-23 00:54 METAR KMVL 230554Z AUTO 36004KT 10SM CLR M08/M09 A3071 RMK AO2 SLP415 T10781089
                 11044 21089 50007 =
2018-02-22 23:54 METAR KMVL 230454Z AUTO 00000KT 10SM CLR M08/M10 A3072 RMK AO2 SLP418 T10831100
                 410061089 =
2018-02-22 22:54 METAR KMVL 230354Z AUTO 00000KT 10SM CLR M08/M09 A3069 RMK AO2 SLP406 T10781094
                 =
2018-02-22 21:54 METAR KMVL 230254Z AUTO 00000KT 10SM CLR M07/M09 A3069 RMK AO2 SLP408 T10721094
                 51006 =
2018-02-22 20:54 METAR KMVL 230154Z AUTO 00000KT 10SM CLR M07/M09 A3069 RMK AO2 SLP407 T10671089
                 =
2018-02-22 19:54 METAR KMVL 230054Z AUTO 00000KT 10SM CLR M05/M09 A3069 RMK AO2 SLP407 T10501089
                 =
2018-02-22 18:54 METAR KMVL 222354Z AUTO 00000KT 10SM CLR M04/M08 A3068 RMK AO2 SLP402 T10441083
                 11011 21044 51006 =
2018-02-22 17:54 METAR KMVL 222254Z AUTO 36004KT 10SM CLR M03/M09 A3067 RMK AO2 SLP400 T10281094
                 =
2018-02-22 16:54 METAR KMVL 222154Z AUTO 02005KT 10SM SCT110 M02/M09 A3066 RMK AO2 SLP396
                 T10221089 =
2018-02-22 15:54 METAR KMVL 222054Z AUTO 03006KT 10SM OVC110 M02/M09 A3066 RMK AO2 SLP394
                 T10221089 56001 =
2018-02-22 14:54 METAR KMVL 221954Z AUTO 01005KT 10SM OVC110 M02/M09 A3066 RMK AO2 SLP395
                 T10171089 =
2018-02-22 13:54 METAR KMVL 221854Z AUTO 03006KT 10SM BKN120 M02/M09 A3064 RMK AO2 SLP389
                 T10171094 =

Support USWX by starting your Amazon purchase here.